sensor_id;sensor_type;location;lat;lon;timestamp;temperature;humidity
20831;DHT22;10576;53.556;9.868;2023-10-31T00:01:01;12.00;99.90
20831;DHT22;10576;53.556;9.868;2023-10-31T00:03:26;12.00;99.90
20831;DHT22;10576;53.556;9.868;2023-10-31T00:05:52;12.00;99.90
20831;DHT22;10576;53.556;9.868;2023-10-31T00:08:17;12.00;99.90
20831;DHT22;10576;53.556;9.868;2023-10-31T00:10:43;12.10;99.90
20831;DHT22;10576;53.556;9.868;2023-10-31T00:13:10;12.00;99.90
20831;DHT22;10576;53.556;9.868;2023-10-31T00:15:36;12.10;99.90
20831;DHT22;10576;53.556;9.868;2023-10-31T00:18:01;12.00;99.90
20831;DHT22;10576;53.556;9.868;2023-10-31T00:20:27;12.10;99.90
20831;DHT22;10576;53.556;9.868;2023-10-31T00:22:53;12.10;99.90
20831;DHT22;10576;53.556;9.868;2023-10-31T00:25:18;12.10;99.90
20831;DHT22;10576;53.556;9.868;2023-10-31T00:27:44;12.10;99.90
20831;DHT22;10576;53.556;9.868;2023-10-31T00:30:10;12.10;99.90
20831;DHT22;10576;53.556;9.868;2023-10-31T00:32:36;12.00;99.90
20831;DHT22;10576;53.556;9.868;2023-10-31T00:35:01;12.10;99.90
20831;DHT22;10576;53.556;9.868;2023-10-31T00:37:27;12.10;99.90
20831;DHT22;10576;53.556;9.868;2023-10-31T00:39:52;12.10;99.90
20831;DHT22;10576;53.556;9.868;2023-10-31T00:42:18;12.00;99.90
20831;DHT22;10576;53.556;9.868;2023-10-31T00:44:43;12.00;99.90
20831;DHT22;10576;53.556;9.868;2023-10-31T00:47:09;12.10;99.90
20831;DHT22;10576;53.556;9.868;2023-10-31T00:49:35;12.10;99.90
20831;DHT22;10576;53.556;9.868;2023-10-31T00:52:00;12.10;99.90
20831;DHT22;10576;53.556;9.868;2023-10-31T00:54:26;12.10;99.90
20831;DHT22;10576;53.556;9.868;2023-10-31T00:56:51;12.10;99.90
20831;DHT22;10576;53.556;9.868;2023-10-31T00:59:17;12.10;99.90
20831;DHT22;10576;53.556;9.868;2023-10-31T01:01:42;12.10;99.90
20831;DHT22;10576;53.556;9.868;2023-10-31T01:04:08;12.20;99.90
20831;DHT22;10576;53.556;9.868;2023-10-31T01:06:33;12.10;99.90
20831;DHT22;10576;53.556;9.868;2023-10-31T01:08:59;12.10;99.90
20831;DHT22;10576;53.556;9.868;2023-10-31T01:11:24;12.10;99.90
20831;DHT22;10576;53.556;9.868;2023-10-31T01:13:50;12.10;99.90
20831;DHT22;10576;53.556;9.868;2023-10-31T01:16:15;12.10;99.90
20831;DHT22;10576;53.556;9.868;2023-10-31T01:18:42;12.10;99.90
20831;DHT22;10576;53.556;9.868;2023-10-31T01:21:07;12.10;99.90
20831;DHT22;10576;53.556;9.868;2023-10-31T01:23:34;12.10;99.90
20831;DHT22;10576;53.556;9.868;2023-10-31T01:25:59;12.10;99.90
20831;DHT22;10576;53.556;9.868;2023-10-31T01:28:25;12.10;99.90
20831;DHT22;10576;53.556;9.868;2023-10-31T01:30:50;12.20;99.90
20831;DHT22;10576;53.556;9.868;2023-10-31T01:33:16;12.20;99.90
20831;DHT22;10576;53.556;9.868;2023-10-31T01:35:41;12.20;99.90
20831;DHT22;10576;53.556;9.868;2023-10-31T01:38:07;12.20;99.90
20831;DHT22;10576;53.556;9.868;2023-10-31T01:40:32;12.20;99.90
20831;DHT22;10576;53.556;9.868;2023-10-31T01:42:58;12.20;99.90
20831;DHT22;10576;53.556;9.868;2023-10-31T01:45:23;12.10;99.90
20831;DHT22;10576;53.556;9.868;2023-10-31T01:47:49;12.10;99.90
20831;DHT22;10576;53.556;9.868;2023-10-31T01:50:17;12.10;99.90
20831;DHT22;10576;53.556;9.868;2023-10-31T01:52:43;12.20;99.90
20831;DHT22;10576;53.556;9.868;2023-10-31T01:55:09;9.90;99.90
20831;DHT22;10576;53.556;9.868;2023-10-31T01:57:35;12.10;99.90
20831;DHT22;10576;53.556;9.868;2023-10-31T02:00:01;12.20;99.90
20831;DHT22;10576;53.556;9.868;2023-10-31T02:02:26;12.10;99.90
20831;DHT22;10576;53.556;9.868;2023-10-31T02:04:52;12.10;99.90
20831;DHT22;10576;53.556;9.868;2023-10-31T02:07:18;12.10;99.90
20831;DHT22;10576;53.556;9.868;2023-10-31T02:09:43;12.10;99.90
20831;DHT22;10576;53.556;9.868;2023-10-31T02:12:09;12.10;99.90
20831;DHT22;10576;53.556;9.868;2023-10-31T02:14:34;12.10;99.90
20831;DHT22;10576;53.556;9.868;2023-10-31T02:17:00;12.20;99.90
20831;DHT22;10576;53.556;9.868;2023-10-31T02:19:26;12.20;99.90
20831;DHT22;10576;53.556;9.868;2023-10-31T02:21:51;12.20;99.90
20831;DHT22;10576;53.556;9.868;2023-10-31T02:24:17;12.20;99.90
20831;DHT22;10576;53.556;9.868;2023-10-31T02:26:42;12.20;99.90
20831;DHT22;10576;53.556;9.868;2023-10-31T02:29:08;12.20;99.90
20831;DHT22;10576;53.556;9.868;2023-10-31T02:31:33;12.20;99.90
20831;DHT22;10576;53.556;9.868;2023-10-31T02:33:59;12.20;99.90
20831;DHT22;10576;53.556;9.868;2023-10-31T02:36:24;12.20;99.90
20831;DHT22;10576;53.556;9.868;2023-10-31T02:38:50;12.20;99.90
20831;DHT22;10576;53.556;9.868;2023-10-31T02:41:15;12.20;99.90
20831;DHT22;10576;53.556;9.868;2023-10-31T02:43:42;12.20;99.90
20831;DHT22;10576;53.556;9.868;2023-10-31T02:46:07;12.20;99.90
20831;DHT22;10576;53.556;9.868;2023-10-31T02:48:33;12.20;99.90
20831;DHT22;10576;53.556;9.868;2023-10-31T02:51:04;12.20;99.90
20831;DHT22;10576;53.556;9.868;2023-10-31T02:53:30;12.30;99.90
20831;DHT22;10576;53.556;9.868;2023-10-31T02:55:55;12.30;99.90
20831;DHT22;10576;53.556;9.868;2023-10-31T02:58:21;12.30;99.90
20831;DHT22;10576;53.556;9.868;2023-10-31T03:00:47;12.30;99.90
20831;DHT22;10576;53.556;9.868;2023-10-31T03:03:12;12.30;99.90
20831;DHT22;10576;53.556;9.868;2023-10-31T03:05:38;12.30;99.90
20831;DHT22;10576;53.556;9.868;2023-10-31T03:08:03;12.30;99.90
20831;DHT22;10576;53.556;9.868;2023-10-31T03:10:29;12.30;99.90
20831;DHT22;10576;53.556;9.868;2023-10-31T03:12:54;12.30;99.90
20831;DHT22;10576;53.556;9.868;2023-10-31T03:15:20;12.30;99.90
20831;DHT22;10576;53.556;9.868;2023-10-31T03:17:46;12.30;99.90
20831;DHT22;10576;53.556;9.868;2023-10-31T03:20:11;12.30;99.90
20831;DHT22;10576;53.556;9.868;2023-10-31T03:22:37;12.30;99.90
20831;DHT22;10576;53.556;9.868;2023-10-31T03:25:03;12.30;99.90
20831;DHT22;10576;53.556;9.868;2023-10-31T03:27:28;12.30;99.90
20831;DHT22;10576;53.556;9.868;2023-10-31T03:29:54;12.30;99.90
20831;DHT22;10576;53.556;9.868;2023-10-31T03:32:19;12.30;99.90
20831;DHT22;10576;53.556;9.868;2023-10-31T03:34:45;12.30;99.90
20831;DHT22;10576;53.556;9.868;2023-10-31T03:37:10;12.40;99.90
20831;DHT22;10576;53.556;9.868;2023-10-31T03:39:36;12.30;99.90
20831;DHT22;10576;53.556;9.868;2023-10-31T03:42:01;12.30;99.90
20831;DHT22;10576;53.556;9.868;2023-10-31T03:44:27;12.30;99.90
20831;DHT22;10576;53.556;9.868;2023-10-31T03:46:52;12.30;99.90
20831;DHT22;10576;53.556;9.868;2023-10-31T03:49:18;12.30;99.90
20831;DHT22;10576;53.556;9.868;2023-10-31T03:51:43;12.30;99.90
20831;DHT22;10576;53.556;9.868;2023-10-31T03:54:09;12.30;99.90
20831;DHT22;10576;53.556;9.868;2023-10-31T03:56:38;12.30;99.90
20831;DHT22;10576;53.556;9.868;2023-10-31T03:59:04;12.40;99.90
20831;DHT22;10576;53.556;9.868;2023-10-31T04:01:29;12.40;99.90
20831;DHT22;10576;53.556;9.868;2023-10-31T04:03:55;12.40;99.90
20831;DHT22;10576;53.556;9.868;2023-10-31T04:06:20;12.40;99.90
20831;DHT22;10576;53.556;9.868;2023-10-31T04:08:46;12.40;99.90
20831;DHT22;10576;53.556;9.868;2023-10-31T04:11:11;12.40;99.90
20831;DHT22;10576;53.556;9.868;2023-10-31T04:13:37;12.40;99.90
20831;DHT22;10576;53.556;9.868;2023-10-31T04:16:02;12.40;99.90
20831;DHT22;10576;53.556;9.868;2023-10-31T04:18:28;12.50;99.90
20831;DHT22;10576;53.556;9.868;2023-10-31T04:20:53;12.40;99.90
20831;DHT22;10576;53.556;9.868;2023-10-31T04:23:19;12.40;99.90
20831;DHT22;10576;53.556;9.868;2023-10-31T04:25:45;12.40;99.90
20831;DHT22;10576;53.556;9.868;2023-10-31T04:28:11;12.50;99.90
20831;DHT22;10576;53.556;9.868;2023-10-31T04:30:38;12.40;99.90
20831;DHT22;10576;53.556;9.868;2023-10-31T04:33:04;12.50;99.90
20831;DHT22;10576;53.556;9.868;2023-10-31T04:35:29;12.50;99.90
20831;DHT22;10576;53.556;9.868;2023-10-31T04:37:55;12.50;99.90
20831;DHT22;10576;53.556;9.868;2023-10-31T04:40:22;12.50;99.90
20831;DHT22;10576;53.556;9.868;2023-10-31T04:42:47;12.50;99.90
20831;DHT22;10576;53.556;9.868;2023-10-31T04:45:13;12.50;99.90
20831;DHT22;10576;53.556;9.868;2023-10-31T04:47:38;12.50;99.90
20831;DHT22;10576;53.556;9.868;2023-10-31T04:50:04;12.50;99.90
20831;DHT22;10576;53.556;9.868;2023-10-31T04:52:29;12.60;99.90
20831;DHT22;10576;53.556;9.868;2023-10-31T04:54:55;12.50;99.90
20831;DHT22;10576;53.556;9.868;2023-10-31T04:57:20;12.50;99.90
20831;DHT22;10576;53.556;9.868;2023-10-31T04:59:46;12.50;99.90
20831;DHT22;10576;53.556;9.868;2023-10-31T05:02:11;12.50;99.90
20831;DHT22;10576;53.556;9.868;2023-10-31T05:04:40;12.50;99.90
20831;DHT22;10576;53.556;9.868;2023-10-31T05:07:06;12.60;99.90
20831;DHT22;10576;53.556;9.868;2023-10-31T05:09:31;12.60;99.90
20831;DHT22;10576;53.556;9.868;2023-10-31T05:11:57;12.60;99.90
20831;DHT22;10576;53.556;9.868;2023-10-31T05:14:23;12.60;99.90
20831;DHT22;10576;53.556;9.868;2023-10-31T05:16:48;12.60;99.90
20831;DHT22;10576;53.556;9.868;2023-10-31T05:19:13;12.60;99.90
20831;DHT22;10576;53.556;9.868;2023-10-31T05:21:39;12.60;99.90
20831;DHT22;10576;53.556;9.868;2023-10-31T05:24:05;12.60;99.90
20831;DHT22;10576;53.556;9.868;2023-10-31T05:26:30;12.60;99.90
20831;DHT22;10576;53.556;9.868;2023-10-31T05:28:56;12.60;99.90
20831;DHT22;10576;53.556;9.868;2023-10-31T05:31:23;12.60;99.90
20831;DHT22;10576;53.556;9.868;2023-10-31T05:33:48;12.60;99.90
20831;DHT22;10576;53.556;9.868;2023-10-31T05:36:17;12.60;99.90
20831;DHT22;10576;53.556;9.868;2023-10-31T05:38:43;12.60;99.90
20831;DHT22;10576;53.556;9.868;2023-10-31T05:41:08;12.60;99.90
20831;DHT22;10576;53.556;9.868;2023-10-31T05:43:34;12.60;99.90
20831;DHT22;10576;53.556;9.868;2023-10-31T05:46:00;12.60;99.90
20831;DHT22;10576;53.556;9.868;2023-10-31T05:48:25;13.10;99.90
20831;DHT22;10576;53.556;9.868;2023-10-31T05:50:51;12.70;99.90
20831;DHT22;10576;53.556;9.868;2023-10-31T05:53:16;12.70;99.90
20831;DHT22;10576;53.556;9.868;2023-10-31T05:55:42;12.70;99.90
20831;DHT22;10576;53.556;9.868;2023-10-31T05:58:07;12.70;99.90
20831;DHT22;10576;53.556;9.868;2023-10-31T06:00:33;12.70;99.90
20831;DHT22;10576;53.556;9.868;2023-10-31T06:02:58;12.60;99.90
20831;DHT22;10576;53.556;9.868;2023-10-31T06:05:24;12.70;99.90
20831;DHT22;10576;53.556;9.868;2023-10-31T06:07:50;12.70;99.90
20831;DHT22;10576;53.556;9.868;2023-10-31T06:10:15;12.70;99.90
20831;DHT22;10576;53.556;9.868;2023-10-31T06:12:41;12.70;99.90
20831;DHT22;10576;53.556;9.868;2023-10-31T06:15:06;12.70;99.90
20831;DHT22;10576;53.556;9.868;2023-10-31T06:17:33;12.60;99.90
20831;DHT22;10576;53.556;9.868;2023-10-31T06:19:59;12.70;99.90
20831;DHT22;10576;53.556;9.868;2023-10-31T06:22:25;12.70;99.90
20831;DHT22;10576;53.556;9.868;2023-10-31T06:24:51;12.70;99.90
20831;DHT22;10576;53.556;9.868;2023-10-31T06:27:17;12.70;99.90
20831;DHT22;10576;53.556;9.868;2023-10-31T06:29:42;15.80;99.90
20831;DHT22;10576;53.556;9.868;2023-10-31T06:32:08;12.70;99.90
20831;DHT22;10576;53.556;9.868;2023-10-31T06:34:33;12.70;99.90
20831;DHT22;10576;53.556;9.868;2023-10-31T06:36:59;12.70;99.90
20831;DHT22;10576;53.556;9.868;2023-10-31T06:39:24;12.70;99.90
20831;DHT22;10576;53.556;9.868;2023-10-31T06:41:49;12.70;99.90
20831;DHT22;10576;53.556;9.868;2023-10-31T06:44:15;12.70;99.90
20831;DHT22;10576;53.556;9.868;2023-10-31T06:46:40;12.70;99.90
20831;DHT22;10576;53.556;9.868;2023-10-31T06:49:06;12.80;99.90
20831;DHT22;10576;53.556;9.868;2023-10-31T06:51:31;12.80;99.90
20831;DHT22;10576;53.556;9.868;2023-10-31T06:53:57;12.80;99.90
20831;DHT22;10576;53.556;9.868;2023-10-31T06:56:22;12.80;99.90
20831;DHT22;10576;53.556;9.868;2023-10-31T06:58:48;12.80;99.90
20831;DHT22;10576;53.556;9.868;2023-10-31T07:01:14;12.80;99.90
20831;DHT22;10576;53.556;9.868;2023-10-31T07:03:43;12.80;99.90
20831;DHT22;10576;53.556;9.868;2023-10-31T07:06:09;12.80;99.90
20831;DHT22;10576;53.556;9.868;2023-10-31T07:08:34;12.80;99.90
20831;DHT22;10576;53.556;9.868;2023-10-31T07:11:00;12.80;99.90
20831;DHT22;10576;53.556;9.868;2023-10-31T07:13:25;12.80;99.90
20831;DHT22;10576;53.556;9.868;2023-10-31T07:15:53;12.80;99.90
20831;DHT22;10576;53.556;9.868;2023-10-31T07:18:18;12.80;99.90
20831;DHT22;10576;53.556;9.868;2023-10-31T07:20:44;12.80;99.90
20831;DHT22;10576;53.556;9.868;2023-10-31T07:23:09;12.80;99.90
20831;DHT22;10576;53.556;9.868;2023-10-31T07:25:35;12.80;99.90
20831;DHT22;10576;53.556;9.868;2023-10-31T07:28:00;12.80;99.90
20831;DHT22;10576;53.556;9.868;2023-10-31T07:30:26;12.80;99.90
20831;DHT22;10576;53.556;9.868;2023-10-31T07:32:52;12.70;99.90
20831;DHT22;10576;53.556;9.868;2023-10-31T07:35:18;12.70;99.90
20831;DHT22;10576;53.556;9.868;2023-10-31T07:37:45;12.70;99.90
20831;DHT22;10576;53.556;9.868;2023-10-31T07:40:10;12.70;99.90
20831;DHT22;10576;53.556;9.868;2023-10-31T07:42:36;12.60;99.90
20831;DHT22;10576;53.556;9.868;2023-10-31T07:45:02;12.60;99.90
20831;DHT22;10576;53.556;9.868;2023-10-31T07:47:27;12.50;99.90
20831;DHT22;10576;53.556;9.868;2023-10-31T07:49:53;12.30;99.90
20831;DHT22;10576;53.556;9.868;2023-10-31T07:52:18;12.20;99.90
20831;DHT22;10576;53.556;9.868;2023-10-31T07:54:44;12.20;99.90
20831;DHT22;10576;53.556;9.868;2023-10-31T07:57:10;12.10;99.90
20831;DHT22;10576;53.556;9.868;2023-10-31T07:59:35;12.10;99.90
20831;DHT22;10576;53.556;9.868;2023-10-31T08:02:01;11.90;99.90
20831;DHT22;10576;53.556;9.868;2023-10-31T08:04:26;12.00;99.90
20831;DHT22;10576;53.556;9.868;2023-10-31T08:06:53;11.90;99.90
20831;DHT22;10576;53.556;9.868;2023-10-31T08:09:19;11.90;99.90
20831;DHT22;10576;53.556;9.868;2023-10-31T08:11:44;11.80;99.90
20831;DHT22;10576;53.556;9.868;2023-10-31T08:14:10;11.70;99.90
20831;DHT22;10576;53.556;9.868;2023-10-31T08:16:35;11.70;99.90
20831;DHT22;10576;53.556;9.868;2023-10-31T08:19:01;11.70;99.90
20831;DHT22;10576;53.556;9.868;2023-10-31T08:21:27;11.70;99.90
20831;DHT22;10576;53.556;9.868;2023-10-31T08:23:59;11.70;99.90
20831;DHT22;10576;53.556;9.868;2023-10-31T08:26:24;11.70;99.90
20831;DHT22;10576;53.556;9.868;2023-10-31T08:28:50;11.70;99.90
20831;DHT22;10576;53.556;9.868;2023-10-31T08:31:16;11.80;99.90
20831;DHT22;10576;53.556;9.868;2023-10-31T08:33:42;11.70;99.90
20831;DHT22;10576;53.556;9.868;2023-10-31T08:36:08;11.80;99.90
20831;DHT22;10576;53.556;9.868;2023-10-31T08:38:34;11.80;99.90
20831;DHT22;10576;53.556;9.868;2023-10-31T08:40:59;11.80;99.90
20831;DHT22;10576;53.556;9.868;2023-10-31T08:43:25;11.80;99.90
20831;DHT22;10576;53.556;9.868;2023-10-31T08:45:51;11.90;99.90
20831;DHT22;10576;53.556;9.868;2023-10-31T08:48:16;11.80;99.90
20831;DHT22;10576;53.556;9.868;2023-10-31T08:50:42;11.90;99.90
20831;DHT22;10576;53.556;9.868;2023-10-31T08:53:07;11.90;99.90
20831;DHT22;10576;53.556;9.868;2023-10-31T08:55:33;11.90;99.90
20831;DHT22;10576;53.556;9.868;2023-10-31T08:57:58;11.90;99.90
20831;DHT22;10576;53.556;9.868;2023-10-31T09:00:24;11.90;99.90
20831;DHT22;10576;53.556;9.868;2023-10-31T09:02:49;11.80;99.90
20831;DHT22;10576;53.556;9.868;2023-10-31T09:05:15;11.90;99.90
20831;DHT22;10576;53.556;9.868;2023-10-31T09:07:40;11.90;99.90
20831;DHT22;10576;53.556;9.868;2023-10-31T09:10:06;11.90;99.90
20831;DHT22;10576;53.556;9.868;2023-10-31T09:12:32;11.90;99.90
20831;DHT22;10576;53.556;9.868;2023-10-31T09:14:57;11.90;99.90
20831;DHT22;10576;53.556;9.868;2023-10-31T09:17:23;12.00;99.90
20831;DHT22;10576;53.556;9.868;2023-10-31T09:19:48;12.00;99.90
20831;DHT22;10576;53.556;9.868;2023-10-31T09:22:14;12.00;99.90
20831;DHT22;10576;53.556;9.868;2023-10-31T09:24:39;11.90;99.90
20831;DHT22;10576;53.556;9.868;2023-10-31T09:27:05;11.90;99.90
20831;DHT22;10576;53.556;9.868;2023-10-31T09:29:31;11.80;99.90
20831;DHT22;10576;53.556;9.868;2023-10-31T09:31:56;12.30;99.90
20831;DHT22;10576;53.556;9.868;2023-10-31T09:34:22;11.80;99.90
20831;DHT22;10576;53.556;9.868;2023-10-31T09:36:47;11.70;99.90
20831;DHT22;10576;53.556;9.868;2023-10-31T09:39:13;11.60;99.90
20831;DHT22;10576;53.556;9.868;2023-10-31T09:41:38;11.60;99.90
20831;DHT22;10576;53.556;9.868;2023-10-31T09:44:04;11.50;99.90
20831;DHT22;10576;53.556;9.868;2023-10-31T09:46:30;11.50;99.90
20831;DHT22;10576;53.556;9.868;2023-10-31T09:48:55;11.40;99.90
20831;DHT22;10576;53.556;9.868;2023-10-31T09:51:21;11.40;99.90
20831;DHT22;10576;53.556;9.868;2023-10-31T09:53:47;11.30;99.90
20831;DHT22;10576;53.556;9.868;2023-10-31T09:56:14;11.30;99.90
20831;DHT22;10576;53.556;9.868;2023-10-31T09:58:39;11.30;99.90
20831;DHT22;10576;53.556;9.868;2023-10-31T10:01:06;11.30;99.90
20831;DHT22;10576;53.556;9.868;2023-10-31T10:03:32;11.30;99.90
20831;DHT22;10576;53.556;9.868;2023-10-31T10:05:58;11.30;99.90
20831;DHT22;10576;53.556;9.868;2023-10-31T10:08:23;11.30;99.90
20831;DHT22;10576;53.556;9.868;2023-10-31T10:10:49;11.30;99.90
20831;DHT22;10576;53.556;9.868;2023-10-31T10:13:18;11.40;99.90
20831;DHT22;10576;53.556;9.868;2023-10-31T10:15:47;11.40;99.90
20831;DHT22;10576;53.556;9.868;2023-10-31T10:20:58;11.30;99.90
20831;DHT22;10576;53.556;9.868;2023-10-31T10:23:24;11.40;99.90
20831;DHT22;10576;53.556;9.868;2023-10-31T10:25:51;11.20;99.90
20831;DHT22;10576;53.556;9.868;2023-10-31T10:28:17;11.30;99.90
20831;DHT22;10576;53.556;9.868;2023-10-31T10:30:44;11.40;99.90
20831;DHT22;10576;53.556;9.868;2023-10-31T10:33:10;11.30;99.90
20831;DHT22;10576;53.556;9.868;2023-10-31T10:35:35;11.20;99.90
20831;DHT22;10576;53.556;9.868;2023-10-31T10:38:01;11.30;99.90
20831;DHT22;10576;53.556;9.868;2023-10-31T10:40:27;11.30;99.90
20831;DHT22;10576;53.556;9.868;2023-10-31T10:42:53;11.30;99.90
20831;DHT22;10576;53.556;9.868;2023-10-31T10:45:23;11.30;99.90
20831;DHT22;10576;53.556;9.868;2023-10-31T10:47:49;11.30;99.90
20831;DHT22;10576;53.556;9.868;2023-10-31T10:50:15;11.30;99.90
20831;DHT22;10576;53.556;9.868;2023-10-31T10:53:29;11.40;99.90
20831;DHT22;10576;53.556;9.868;2023-10-31T10:55:33;11.30;99.90
20831;DHT22;10576;53.556;9.868;2023-10-31T10:58:18;11.30;99.90
20831;DHT22;10576;53.556;9.868;2023-10-31T11:00:46;11.30;99.90
20831;DHT22;10576;53.556;9.868;2023-10-31T11:03:12;11.30;99.90
20831;DHT22;10576;53.556;9.868;2023-10-31T11:05:38;11.30;99.90
20831;DHT22;10576;53.556;9.868;2023-10-31T11:08:05;11.30;99.90
20831;DHT22;10576;53.556;9.868;2023-10-31T11:10:31;11.40;99.90
20831;DHT22;10576;53.556;9.868;2023-10-31T11:12:57;11.30;99.90
20831;DHT22;10576;53.556;9.868;2023-10-31T11:15:23;11.30;99.90
20831;DHT22;10576;53.556;9.868;2023-10-31T11:17:49;11.30;99.90
20831;DHT22;10576;53.556;9.868;2023-10-31T11:20:16;11.40;99.90
20831;DHT22;10576;53.556;9.868;2023-10-31T11:22:42;11.50;99.90
20831;DHT22;10576;53.556;9.868;2023-10-31T11:25:10;11.50;99.90
20831;DHT22;10576;53.556;9.868;2023-10-31T11:27:36;11.50;99.90
20831;DHT22;10576;53.556;9.868;2023-10-31T11:30:19;11.60;99.90
20831;DHT22;10576;53.556;9.868;2023-10-31T11:33:02;11.60;99.90
20831;DHT22;10576;53.556;9.868;2023-10-31T11:35:30;11.60;99.90
20831;DHT22;10576;53.556;9.868;2023-10-31T11:38:04;11.50;99.90
20831;DHT22;10576;53.556;9.868;2023-10-31T11:40:33;11.60;99.90
20831;DHT22;10576;53.556;9.868;2023-10-31T11:43:02;11.70;99.90
20831;DHT22;10576;53.556;9.868;2023-10-31T11:45:40;11.70;99.90
20831;DHT22;10576;53.556;9.868;2023-10-31T11:48:07;11.70;99.90
20831;DHT22;10576;53.556;9.868;2023-10-31T11:50:33;11.90;99.90
20831;DHT22;10576;53.556;9.868;2023-10-31T11:53:06;11.90;99.90
20831;DHT22;10576;53.556;9.868;2023-10-31T11:55:35;11.90;99.90
20831;DHT22;10576;53.556;9.868;2023-10-31T12:00:39;12.10;99.90
20831;DHT22;10576;53.556;9.868;2023-10-31T12:03:04;12.10;99.90
20831;DHT22;10576;53.556;9.868;2023-10-31T12:05:30;12.10;99.90
20831;DHT22;10576;53.556;9.868;2023-10-31T12:07:55;12.10;99.90
20831;DHT22;10576;53.556;9.868;2023-10-31T12:10:25;12.20;99.90
20831;DHT22;10576;53.556;9.868;2023-10-31T12:12:51;12.30;99.90
20831;DHT22;10576;53.556;9.868;2023-10-31T12:15:16;12.30;99.90
20831;DHT22;10576;53.556;9.868;2023-10-31T12:17:42;12.30;99.90
20831;DHT22;10576;53.556;9.868;2023-10-31T12:20:08;12.40;99.90
20831;DHT22;10576;53.556;9.868;2023-10-31T12:22:34;12.50;99.90
20831;DHT22;10576;53.556;9.868;2023-10-31T12:25:01;12.50;99.90
20831;DHT22;10576;53.556;9.868;2023-10-31T12:27:41;12.40;99.90
20831;DHT22;10576;53.556;9.868;2023-10-31T12:30:07;12.40;99.90
20831;DHT22;10576;53.556;9.868;2023-10-31T12:32:33;12.40;99.90
20831;DHT22;10576;53.556;9.868;2023-10-31T12:34:58;12.40;99.90
20831;DHT22;10576;53.556;9.868;2023-10-31T12:37:24;12.40;99.90
20831;DHT22;10576;53.556;9.868;2023-10-31T12:39:49;12.40;99.90
20831;DHT22;10576;53.556;9.868;2023-10-31T12:42:16;12.50;99.90
20831;DHT22;10576;53.556;9.868;2023-10-31T12:44:42;12.50;99.90
20831;DHT22;10576;53.556;9.868;2023-10-31T12:47:07;12.40;99.90
20831;DHT22;10576;53.556;9.868;2023-10-31T12:49:34;12.50;99.90
20831;DHT22;10576;53.556;9.868;2023-10-31T12:54:28;12.50;99.90
20831;DHT22;10576;53.556;9.868;2023-10-31T12:56:57;12.50;99.90
20831;DHT22;10576;53.556;9.868;2023-10-31T12:59:24;12.50;99.90
20831;DHT22;10576;53.556;9.868;2023-10-31T13:01:49;12.50;99.90
20831;DHT22;10576;53.556;9.868;2023-10-31T13:04:23;12.50;99.90
20831;DHT22;10576;53.556;9.868;2023-10-31T13:09:21;12.50;99.90
20831;DHT22;10576;53.556;9.868;2023-10-31T13:11:47;12.50;99.90
20831;DHT22;10576;53.556;9.868;2023-10-31T13:14:13;12.40;99.90
20831;DHT22;10576;53.556;9.868;2023-10-31T13:16:38;12.30;99.90
20831;DHT22;10576;53.556;9.868;2023-10-31T13:19:04;12.30;99.90
20831;DHT22;10576;53.556;9.868;2023-10-31T13:21:29;12.20;99.90
20831;DHT22;10576;53.556;9.868;2023-10-31T13:23:55;12.20;99.90
20831;DHT22;10576;53.556;9.868;2023-10-31T13:26:20;12.10;99.90
20831;DHT22;10576;53.556;9.868;2023-10-31T13:28:46;12.10;99.90
20831;DHT22;10576;53.556;9.868;2023-10-31T13:31:11;12.00;99.90
20831;DHT22;10576;53.556;9.868;2023-10-31T13:33:39;11.70;99.90
20831;DHT22;10576;53.556;9.868;2023-10-31T13:36:05;11.60;99.90
20831;DHT22;10576;53.556;9.868;2023-10-31T13:38:30;11.50;99.90
20831;DHT22;10576;53.556;9.868;2023-10-31T13:40:56;11.40;99.90
20831;DHT22;10576;53.556;9.868;2023-10-31T13:43:21;11.20;99.90
20831;DHT22;10576;53.556;9.868;2023-10-31T13:45:47;11.20;99.90
20831;DHT22;10576;53.556;9.868;2023-10-31T13:48:12;14.40;99.90
20831;DHT22;10576;53.556;9.868;2023-10-31T13:50:39;11.10;99.90
20831;DHT22;10576;53.556;9.868;2023-10-31T13:53:05;10.80;99.90
20831;DHT22;10576;53.556;9.868;2023-10-31T13:55:32;10.80;99.90
20831;DHT22;10576;53.556;9.868;2023-10-31T13:57:58;10.70;99.90
20831;DHT22;10576;53.556;9.868;2023-10-31T14:00:24;10.70;99.90
20831;DHT22;10576;53.556;9.868;2023-10-31T14:02:49;10.60;99.90
20831;DHT22;10576;53.556;9.868;2023-10-31T14:05:15;10.60;99.90
20831;DHT22;10576;53.556;9.868;2023-10-31T14:07:41;10.40;99.90
20831;DHT22;10576;53.556;9.868;2023-10-31T14:10:07;10.90;99.90
20831;DHT22;10576;53.556;9.868;2023-10-31T14:12:32;10.30;99.90
20831;DHT22;10576;53.556;9.868;2023-10-31T14:14:58;10.20;99.90
20831;DHT22;10576;53.556;9.868;2023-10-31T14:17:24;10.20;99.90
20831;DHT22;10576;53.556;9.868;2023-10-31T14:19:49;10.10;99.90
20831;DHT22;10576;53.556;9.868;2023-10-31T14:22:15;10.00;99.90
20831;DHT22;10576;53.556;9.868;2023-10-31T14:24:40;10.00;99.90
20831;DHT22;10576;53.556;9.868;2023-10-31T14:27:06;10.00;99.90
20831;DHT22;10576;53.556;9.868;2023-10-31T14:29:32;9.90;99.90
20831;DHT22;10576;53.556;9.868;2023-10-31T14:32:04;9.80;99.90
20831;DHT22;10576;53.556;9.868;2023-10-31T14:34:30;9.60;99.90
20831;DHT22;10576;53.556;9.868;2023-10-31T14:36:55;9.50;99.90
20831;DHT22;10576;53.556;9.868;2023-10-31T14:39:21;9.50;99.90
20831;DHT22;10576;53.556;9.868;2023-10-31T14:41:46;9.50;99.90
20831;DHT22;10576;53.556;9.868;2023-10-31T14:44:12;9.40;99.90
20831;DHT22;10576;53.556;9.868;2023-10-31T14:46:37;9.30;99.90
20831;DHT22;10576;53.556;9.868;2023-10-31T14:49:03;9.40;99.90
20831;DHT22;10576;53.556;9.868;2023-10-31T14:51:29;9.30;99.90
20831;DHT22;10576;53.556;9.868;2023-10-31T14:53:54;9.20;99.90
20831;DHT22;10576;53.556;9.868;2023-10-31T14:56:20;9.10;99.90
20831;DHT22;10576;53.556;9.868;2023-10-31T14:58:47;9.20;99.90
20831;DHT22;10576;53.556;9.868;2023-10-31T15:01:12;9.20;99.90
20831;DHT22;10576;53.556;9.868;2023-10-31T15:03:38;9.20;99.90
20831;DHT22;10576;53.556;9.868;2023-10-31T15:06:04;9.10;99.90
20831;DHT22;10576;53.556;9.868;2023-10-31T15:08:29;9.10;99.90
20831;DHT22;10576;53.556;9.868;2023-10-31T15:10:55;9.00;99.90
20831;DHT22;10576;53.556;9.868;2023-10-31T15:13:21;8.80;99.90
20831;DHT22;10576;53.556;9.868;2023-10-31T15:15:48;8.70;99.90
20831;DHT22;10576;53.556;9.868;2023-10-31T15:18:13;8.60;99.90
20831;DHT22;10576;53.556;9.868;2023-10-31T15:20:39;8.60;99.90
20831;DHT22;10576;53.556;9.868;2023-10-31T15:23:04;8.30;99.90
20831;DHT22;10576;53.556;9.868;2023-10-31T15:25:30;8.30;99.90
20831;DHT22;10576;53.556;9.868;2023-10-31T15:27:55;8.20;99.90
20831;DHT22;10576;53.556;9.868;2023-10-31T15:30:21;8.20;99.90
20831;DHT22;10576;53.556;9.868;2023-10-31T15:32:46;8.20;99.90
20831;DHT22;10576;53.556;9.868;2023-10-31T15:35:12;8.10;99.90